Dennis J. Pasentine — WDF2813 — position and weather

sailwx.info

Track history (hours):
 
Tides and Currents Weather Stations Pressure Air Temp Water Temp Dewpoint Dewpoint Depression Visibility Wind Speed Wind Dir Waves Ship Positions

Dennis J. Pasentine

Owner: Florida Marine Transporters, Inc., Mandeville, LA. More information available from US FCC via Universal Licensing System and Coast Guard Vessel Documentation Center.

Last reported at 2016-May-16 02:13 UTC. Time now 2016-May-29 09:43 UTC.
Position N 32°36' W 091°08'.
Warning: this ship's position is 13 days out of date.

Length 42 m.

Type: Towing. MMSI: 367432180.

Date/timePositionNaut miles runAvg speedWind from/ knotsBaromVisibWave heightAir tempDewpointWater temp
2016-May-16 02:13N 32°36' W 091°08'6 5.2
2016-May-16 01:04N 32°30' W 091°07'3 5.0
2016-May-16 00:34N 32°28' W 091°06'5 5.2
2016-May-15 23:33N 32°25' W 091°00'4 4.2
2016-May-15 22:34N 32°21' W 090°59'4 4.1
2016-May-15 21:33N 32°20' W 090°55'3 2.6
2016-May-15 20:33N 32°18' W 090°56'5 4.9
2016-May-15 19:33N 32°14' W 090°59'5 5.0
2016-May-15 18:33N 32°09' W 091°00'  
2016-May-13 10:06N 29°56' W 090°12'3 5.1
2016-May-13 09:33N 29°57' W 090°09'4 4.4
2016-May-13 08:33N 29°55' W 090°05'4 3.6
2016-May-13 07:33N 29°57' W 090°02'2 1.7
2016-May-13 06:33N 29°56' W 089°60'3 2.7
2016-May-13 05:34N 29°57' W 090°03'5 5.0
2016-May-13 04:33N 29°57' W 090°08'  
2016-May-08 14:11N 32°06' W 091°06'4 6.2
2016-May-08 13:34N 32°07' W 091°02'9 9.0
2016-May-08 12:33N 32°16' W 090°58'5 5.2
2016-May-08 11:33N 32°21' W 090°58'0 0.1
2016-May-08 10:33N 32°21' W 090°58'0 0.0
2016-May-08 09:34N 32°21' W 090°58'0 0.0
2016-May-08 08:33N 32°21' W 090°58'0 0.0
2016-May-08 07:33N 32°21' W 090°58'0 0.0
2016-May-08 06:33N 32°21' W 090°58'4 4.1
2016-May-08 05:33N 32°25' W 090°60'8 7.9
2016-May-08 04:31N 32°31' W 091°06'8 8.0
2016-May-08 03:28N 32°39' W 091°09'  
Track history (hours):
 
Tides and Currents Weather Stations Pressure Air Temp Water Temp Dewpoint Dewpoint Depression Visibility Wind Speed Wind Dir Waves Ship Positions

Dennis J. Pasentine

Owner: Florida Marine Transporters, Inc., Mandeville, LA. More information available from US FCC via Universal Licensing System and Coast Guard Vessel Documentation Center.

Last reported at 2016-May-16 02:13 UTC. Time now 2016-May-29 09:43 UTC.
Position N 32°36' W 091°08'.
Warning: this ship's position is 13 days out of date.

Length 42 m.

Type: Towing. MMSI: 367432180.

Date/timePositionNaut miles runAvg speedWind from/ knotsBaromVisibWave heightAir tempDewpointWater temp
2016-May-16 02:13N 32°36' W 091°08'6 5.2
2016-May-16 01:04N 32°30' W 091°07'3 5.0
2016-May-16 00:34N 32°28' W 091°06'5 5.2
2016-May-15 23:33N 32°25' W 091°00'4 4.2
2016-May-15 22:34N 32°21' W 090°59'4 4.1
2016-May-15 21:33N 32°20' W 090°55'3 2.6
2016-May-15 20:33N 32°18' W 090°56'5 4.9
2016-May-15 19:33N 32°14' W 090°59'5 5.0
2016-May-15 18:33N 32°09' W 091°00'  
2016-May-13 10:06N 29°56' W 090°12'3 5.1
2016-May-13 09:33N 29°57' W 090°09'4 4.4
2016-May-13 08:33N 29°55' W 090°05'4 3.6
2016-May-13 07:33N 29°57' W 090°02'2 1.7
2016-May-13 06:33N 29°56' W 089°60'3 2.7
2016-May-13 05:34N 29°57' W 090°03'5 5.0
2016-May-13 04:33N 29°57' W 090°08'  
2016-May-08 14:11N 32°06' W 091°06'4 6.2
2016-May-08 13:34N 32°07' W 091°02'9 9.0
2016-May-08 12:33N 32°16' W 090°58'5 5.2
2016-May-08 11:33N 32°21' W 090°58'0 0.1
2016-May-08 10:33N 32°21' W 090°58'0 0.0
2016-May-08 09:34N 32°21' W 090°58'0 0.0
2016-May-08 08:33N 32°21' W 090°58'0 0.0
2016-May-08 07:33N 32°21' W 090°58'0 0.0
2016-May-08 06:33N 32°21' W 090°58'4 4.1
2016-May-08 05:33N 32°25' W 090°60'8 7.9
2016-May-08 04:31N 32°31' W 091°06'8 8.0
2016-May-08 03:28N 32°39' W 091°09'  

Dump ship's entire track history